sensor_id;sensor_type;location;lat;lon;timestamp;pressure;altitude;pressure_sealevel;temperature;humidity
74218;BME280;62579;47.288;18.646;2023-04-15T00:00:54;98835.13;;;6.05;96.59
74218;BME280;62579;47.288;18.646;2023-04-15T00:03:19;98831.44;;;5.91;97.40
74218;BME280;62579;47.288;18.646;2023-04-15T00:05:44;98834.41;;;6.04;97.09
74218;BME280;62579;47.288;18.646;2023-04-15T00:08:09;98829.25;;;6.12;96.80
74218;BME280;62579;47.288;18.646;2023-04-15T00:10:35;98826.56;;;6.18;96.62
74218;BME280;62579;47.288;18.646;2023-04-15T00:13:00;98828.03;;;6.13;97.19
74218;BME280;62579;47.288;18.646;2023-04-15T00:15:26;98830.22;;;6.20;96.71
74218;BME280;62579;47.288;18.646;2023-04-15T00:17:52;98830.72;;;6.13;97.00
74218;BME280;62579;47.288;18.646;2023-04-15T00:20:17;98830.22;;;6.09;97.46
74218;BME280;62579;47.288;18.646;2023-04-15T00:22:42;98835.13;;;6.11;97.44
74218;BME280;62579;47.288;18.646;2023-04-15T00:25:07;98829.97;;;5.96;97.95
74218;BME280;62579;47.288;18.646;2023-04-15T00:27:33;98831.19;;;6.06;97.87
74218;BME280;62579;47.288;18.646;2023-04-15T00:29:58;98828.25;;;6.15;97.60
74218;BME280;62579;47.288;18.646;2023-04-15T00:32:24;98846.22;;;6.24;97.48
74218;BME280;62579;47.288;18.646;2023-04-15T00:34:49;98839.09;;;6.32;97.11
74218;BME280;62579;47.288;18.646;2023-04-15T00:37:15;98838.09;;;6.24;97.50
74218;BME280;62579;47.288;18.646;2023-04-15T00:39:40;98834.66;;;6.29;97.37
74218;BME280;62579;47.288;18.646;2023-04-15T00:42:05;98835.63;;;6.09;98.12
74218;BME280;62579;47.288;18.646;2023-04-15T00:44:31;98836.63;;;6.28;97.03
74218;BME280;62579;47.288;18.646;2023-04-15T00:46:57;98833.69;;;6.32;96.90
74218;BME280;62579;47.288;18.646;2023-04-15T00:49:22;98842.03;;;6.34;97.00
74218;BME280;62579;47.288;18.646;2023-04-15T00:51:48;98845.22;;;6.32;96.80
74218;BME280;62579;47.288;18.646;2023-04-15T00:54:13;98841.78;;;6.21;97.96
74218;BME280;62579;47.288;18.646;2023-04-15T00:56:38;98839.81;;;6.21;97.38
74218;BME280;62579;47.288;18.646;2023-04-15T00:59:04;98839.56;;;6.25;97.50
74218;BME280;62579;47.288;18.646;2023-04-15T01:01:36;98834.66;;;6.29;97.16
74218;BME280;62579;47.288;18.646;2023-04-15T01:04:02;98836.13;;;6.35;96.87
74218;BME280;62579;47.288;18.646;2023-04-15T01:06:28;98840.06;;;6.40;96.96
74218;BME280;62579;47.288;18.646;2023-04-15T01:08:54;98830.97;;;6.37;96.92
74218;BME280;62579;47.288;18.646;2023-04-15T01:11:19;98822.59;;;6.35;96.72
74218;BME280;62579;47.288;18.646;2023-04-15T01:13:46;98832.69;;;6.35;96.38
74218;BME280;62579;47.288;18.646;2023-04-15T01:16:12;98827.28;;;6.40;95.75
74218;BME280;62579;47.288;18.646;2023-04-15T01:18:38;98840.53;;;6.44;95.56
74218;BME280;62579;47.288;18.646;2023-04-15T01:21:04;98833.19;;;6.50;95.43
74218;BME280;62579;47.288;18.646;2023-04-15T01:23:29;98838.81;;;6.52;95.63
74218;BME280;62579;47.288;18.646;2023-04-15T01:25:54;98832.44;;;6.38;96.82
74218;BME280;62579;47.288;18.646;2023-04-15T01:28:20;98822.38;;;6.50;96.63
74218;BME280;62579;47.288;18.646;2023-04-15T01:30:45;98834.16;;;6.41;96.93
74218;BME280;62579;47.288;18.646;2023-04-15T01:33:11;98832.19;;;6.42;96.87
74218;BME280;62579;47.288;18.646;2023-04-15T01:35:36;98836.63;;;6.39;96.59
74218;BME280;62579;47.288;18.646;2023-04-15T01:38:03;98834.16;;;6.41;96.12
74218;BME280;62579;47.288;18.646;2023-04-15T01:40:29;98831.69;;;6.38;96.04
74218;BME280;62579;47.288;18.646;2023-04-15T01:42:54;98835.66;;;6.37;96.00
74218;BME280;62579;47.288;18.646;2023-04-15T01:45:20;98829.00;;;6.38;95.63
74218;BME280;62579;47.288;18.646;2023-04-15T01:47:45;98834.66;;;6.40;95.16
74218;BME280;62579;47.288;18.646;2023-04-15T01:50:10;98833.19;;;6.44;94.93
74218;BME280;62579;47.288;18.646;2023-04-15T01:52:35;98838.59;;;6.39;95.24
74218;BME280;62579;47.288;18.646;2023-04-15T01:55:01;98837.84;;;6.38;95.16
74218;BME280;62579;47.288;18.646;2023-04-15T01:57:26;98835.66;;;6.31;95.19
74218;BME280;62579;47.288;18.646;2023-04-15T01:59:52;98827.78;;;6.33;95.36
74218;BME280;62579;47.288;18.646;2023-04-15T02:02:17;98836.38;;;6.32;95.67
74218;BME280;62579;47.288;18.646;2023-04-15T02:04:42;98832.69;;;6.29;95.71
74218;BME280;62579;47.288;18.646;2023-04-15T02:07:08;98834.41;;;6.32;95.86
74218;BME280;62579;47.288;18.646;2023-04-15T02:09:33;98841.03;;;6.20;96.82
74218;BME280;62579;47.288;18.646;2023-04-15T02:11:59;98851.09;;;6.25;96.82
74218;BME280;62579;47.288;18.646;2023-04-15T02:14:24;98837.59;;;6.25;96.87
74218;BME280;62579;47.288;18.646;2023-04-15T02:16:50;98839.09;;;6.32;96.64
74218;BME280;62579;47.288;18.646;2023-04-15T02:19:15;98842.78;;;6.40;96.43
74218;BME280;62579;47.288;18.646;2023-04-15T02:21:40;98836.88;;;6.36;96.72
74218;BME280;62579;47.288;18.646;2023-04-15T02:24:05;98834.66;;;6.40;96.28
74218;BME280;62579;47.288;18.646;2023-04-15T02:26:31;98838.81;;;6.41;95.91
74218;BME280;62579;47.288;18.646;2023-04-15T02:28:57;98834.16;;;6.36;96.00
74218;BME280;62579;47.288;18.646;2023-04-15T02:31:22;98840.53;;;6.44;96.05
74218;BME280;62579;47.288;18.646;2023-04-15T02:33:47;98844.00;;;6.44;95.79
74218;BME280;62579;47.288;18.646;2023-04-15T02:36:13;98842.50;;;6.43;95.74
74218;BME280;62579;47.288;18.646;2023-04-15T02:38:38;98838.34;;;6.42;96.17
74218;BME280;62579;47.288;18.646;2023-04-15T02:41:08;98835.87;;;6.39;96.40
74218;BME280;62579;47.288;18.646;2023-04-15T02:43:33;98824.84;;;6.42;96.25
74218;BME280;62579;47.288;18.646;2023-04-15T02:45:58;98821.41;;;6.42;96.24
74218;BME280;62579;47.288;18.646;2023-04-15T02:48:23;98820.66;;;6.30;97.20
74218;BME280;62579;47.288;18.646;2023-04-15T02:50:49;98822.13;;;6.20;97.87
74218;BME280;62579;47.288;18.646;2023-04-15T02:53:14;98817.47;;;6.32;97.42
74218;BME280;62579;47.288;18.646;2023-04-15T02:55:39;98829.00;;;6.38;96.83
74218;BME280;62579;47.288;18.646;2023-04-15T02:58:04;98820.66;;;6.41;96.56
74218;BME280;62579;47.288;18.646;2023-04-15T03:00:30;98816.72;;;6.37;96.68
74218;BME280;62579;47.288;18.646;2023-04-15T03:03:00;98814.03;;;6.37;96.75
74218;BME280;62579;47.288;18.646;2023-04-15T03:05:26;98817.22;;;6.41;97.07
74218;BME280;62579;47.288;18.646;2023-04-15T03:07:51;98822.84;;;6.43;96.96
74218;BME280;62579;47.288;18.646;2023-04-15T03:10:16;98811.06;;;6.40;96.84
74218;BME280;62579;47.288;18.646;2023-04-15T03:12:42;98819.44;;;6.26;98.16
74218;BME280;62579;47.288;18.646;2023-04-15T03:15:07;98821.16;;;6.34;98.03
74218;BME280;62579;47.288;18.646;2023-04-15T03:17:33;98814.28;;;6.39;97.82
74218;BME280;62579;47.288;18.646;2023-04-15T03:19:58;98822.84;;;6.43;97.45
74218;BME280;62579;47.288;18.646;2023-04-15T03:22:23;98822.59;;;6.46;96.96
74218;BME280;62579;47.288;18.646;2023-04-15T03:24:49;98832.94;;;6.48;96.83
74218;BME280;62579;47.288;18.646;2023-04-15T03:27:14;98826.06;;;6.47;97.38
74218;BME280;62579;47.288;18.646;2023-04-15T03:29:39;98819.66;;;6.50;97.20
74218;BME280;62579;47.288;18.646;2023-04-15T03:32:05;98816.47;;;6.51;97.24
74218;BME280;62579;47.288;18.646;2023-04-15T03:34:30;98816.72;;;6.48;97.47
74218;BME280;62579;47.288;18.646;2023-04-15T03:36:56;98815.75;;;6.45;97.80
74218;BME280;62579;47.288;18.646;2023-04-15T03:39:21;98818.94;;;6.49;97.84
74218;BME280;62579;47.288;18.646;2023-04-15T03:41:46;98818.94;;;6.55;97.31
74218;BME280;62579;47.288;18.646;2023-04-15T03:44:12;98825.31;;;6.52;97.04
74218;BME280;62579;47.288;18.646;2023-04-15T03:46:37;98823.84;;;6.45;97.10
74218;BME280;62579;47.288;18.646;2023-04-15T03:49:02;98822.59;;;6.46;97.16
74218;BME280;62579;47.288;18.646;2023-04-15T03:51:27;98819.91;;;6.52;97.00
74218;BME280;62579;47.288;18.646;2023-04-15T03:53:53;98825.06;;;6.50;97.21
74218;BME280;62579;47.288;18.646;2023-04-15T03:56:18;98825.06;;;6.44;98.00
74218;BME280;62579;47.288;18.646;2023-04-15T03:58:43;98822.13;;;6.42;98.43
74218;BME280;62579;47.288;18.646;2023-04-15T04:01:08;98817.94;;;6.41;98.77
74218;BME280;62579;47.288;18.646;2023-04-15T04:03:33;98818.44;;;6.45;98.79
74218;BME280;62579;47.288;18.646;2023-04-15T04:05:59;98817.72;;;6.45;98.78
74218;BME280;62579;47.288;18.646;2023-04-15T04:08:24;98815.72;;;6.51;98.47
74218;BME280;62579;47.288;18.646;2023-04-15T04:11:01;98807.66;;;6.40;99.11
74218;BME280;62579;47.288;18.646;2023-04-15T04:13:26;98808.34;;;6.46;99.09
74218;BME280;62579;47.288;18.646;2023-04-15T04:15:51;98818.19;;;6.54;98.74
74218;BME280;62579;47.288;18.646;2023-04-15T04:18:20;98822.38;;;6.50;98.71
74218;BME280;62579;47.288;18.646;2023-04-15T04:20:45;98818.69;;;6.47;98.95
74218;BME280;62579;47.288;18.646;2023-04-15T04:23:10;98813.75;;;6.51;98.66
74218;BME280;62579;47.288;18.646;2023-04-15T04:25:36;98814.50;;;6.52;98.56
74218;BME280;62579;47.288;18.646;2023-04-15T04:28:01;98819.66;;;6.55;98.74
74218;BME280;62579;47.288;18.646;2023-04-15T04:30:26;98814.00;;;6.64;98.02
74218;BME280;62579;47.288;18.646;2023-04-15T04:32:52;98820.66;;;6.58;98.94
74218;BME280;62579;47.288;18.646;2023-04-15T04:35:17;98817.94;;;6.58;98.95
74218;BME280;62579;47.288;18.646;2023-04-15T04:37:42;98825.53;;;6.59;98.85
74218;BME280;62579;47.288;18.646;2023-04-15T04:40:08;98827.78;;;6.61;98.97
74218;BME280;62579;47.288;18.646;2023-04-15T04:42:33;98829.72;;;6.66;99.08
74218;BME280;62579;47.288;18.646;2023-04-15T04:44:58;98830.72;;;6.69;99.43
74218;BME280;62579;47.288;18.646;2023-04-15T04:47:23;98827.75;;;6.72;99.51
74218;BME280;62579;47.288;18.646;2023-04-15T04:49:49;98838.31;;;6.81;99.02
74218;BME280;62579;47.288;18.646;2023-04-15T04:52:14;98826.25;;;6.82;99.02
74218;BME280;62579;47.288;18.646;2023-04-15T04:54:40;98822.31;;;6.83;98.86
74218;BME280;62579;47.288;18.646;2023-04-15T04:57:05;98822.09;;;6.70;99.89
74218;BME280;62579;47.288;18.646;2023-04-15T04:59:32;98830.19;;;6.76;100.00
74218;BME280;62579;47.288;18.646;2023-04-15T05:01:57;98824.53;;;6.79;100.00
74218;BME280;62579;47.288;18.646;2023-04-15T05:04:22;98839.50;;;6.91;99.76
74218;BME280;62579;47.288;18.646;2023-04-15T05:06:47;98837.06;;;6.93;99.92
74218;BME280;62579;47.288;18.646;2023-04-15T05:09:12;98842.69;;;7.01;100.00
74218;BME280;62579;47.288;18.646;2023-04-15T05:11:38;98838.97;;;7.15;98.92
74218;BME280;62579;47.288;18.646;2023-04-15T05:14:03;98835.53;;;7.09;99.86
74218;BME280;62579;47.288;18.646;2023-04-15T05:16:28;98847.09;;;7.09;100.00
74218;BME280;62579;47.288;18.646;2023-04-15T05:18:53;98847.38;;;6.95;100.00
74218;BME280;62579;47.288;18.646;2023-04-15T05:21:19;98846.84;;;7.07;100.00
74218;BME280;62579;47.288;18.646;2023-04-15T05:23:44;98844.66;;;7.00;100.00
74218;BME280;62579;47.288;18.646;2023-04-15T05:26:09;98841.69;;;7.09;100.00
74218;BME280;62579;47.288;18.646;2023-04-15T05:28:35;98844.41;;;7.09;100.00
74218;BME280;62579;47.288;18.646;2023-04-15T05:31:00;98849.53;;;7.18;100.00
74218;BME280;62579;47.288;18.646;2023-04-15T05:33:26;98848.81;;;7.12;100.00
74218;BME280;62579;47.288;18.646;2023-04-15T05:35:51;98857.69;;;7.02;100.00
74218;BME280;62579;47.288;18.646;2023-04-15T05:38:17;98858.41;;;7.13;100.00
74218;BME280;62579;47.288;18.646;2023-04-15T05:40:42;98864.00;;;7.26;100.00
74218;BME280;62579;47.288;18.646;2023-04-15T05:43:07;98852.41;;;7.37;100.00
74218;BME280;62579;47.288;18.646;2023-04-15T05:45:32;98861.97;;;7.49;100.00
74218;BME280;62579;47.288;18.646;2023-04-15T05:47:57;98852.13;;;7.52;100.00
74218;BME280;62579;47.288;18.646;2023-04-15T05:50:23;98858.78;;;7.45;100.00
74218;BME280;62579;47.288;18.646;2023-04-15T05:52:48;98854.41;;;7.37;100.00
74218;BME280;62579;47.288;18.646;2023-04-15T05:55:13;98860.00;;;7.50;100.00
74218;BME280;62579;47.288;18.646;2023-04-15T05:57:38;98860.28;;;7.41;100.00
74218;BME280;62579;47.288;18.646;2023-04-15T06:00:04;98869.12;;;7.47;100.00
74218;BME280;62579;47.288;18.646;2023-04-15T06:02:29;98864.63;;;7.60;100.00
74218;BME280;62579;47.288;18.646;2023-04-15T06:04:55;98872.47;;;7.64;100.00
74218;BME280;62579;47.288;18.646;2023-04-15T06:07:21;98876.19;;;7.66;100.00
74218;BME280;62579;47.288;18.646;2023-04-15T06:09:46;98876.47;;;7.57;100.00
74218;BME280;62579;47.288;18.646;2023-04-15T06:12:12;98883.78;;;7.73;100.00
74218;BME280;62579;47.288;18.646;2023-04-15T06:14:37;98885.75;;;7.73;100.00
74218;BME280;62579;47.288;18.646;2023-04-15T06:17:03;98881.47;;;7.88;100.00
74218;BME280;62579;47.288;18.646;2023-04-15T06:19:28;98882.47;;;7.85;100.00
74218;BME280;62579;47.288;18.646;2023-04-15T06:21:54;98881.25;;;7.86;100.00
74218;BME280;62579;47.288;18.646;2023-04-15T06:24:19;98883.69;;;7.90;100.00
74218;BME280;62579;47.288;18.646;2023-04-15T06:26:44;98882.69;;;7.93;100.00
74218;BME280;62579;47.288;18.646;2023-04-15T06:29:10;98884.94;;;7.83;100.00
74218;BME280;62579;47.288;18.646;2023-04-15T06:31:35;98887.66;;;7.83;100.00
74218;BME280;62579;47.288;18.646;2023-04-15T06:34:00;98887.09;;;7.96;100.00
74218;BME280;62579;47.288;18.646;2023-04-15T06:36:25;98889.03;;;8.07;100.00
74218;BME280;62579;47.288;18.646;2023-04-15T06:38:52;98884.88;;;8.00;100.00
74218;BME280;62579;47.288;18.646;2023-04-15T06:41:17;98884.06;;;8.11;100.00
74218;BME280;62579;47.288;18.646;2023-04-15T06:43:42;98889.34;;;7.92;100.00
74218;BME280;62579;47.288;18.646;2023-04-15T06:46:08;98892.22;;;8.05;100.00
74218;BME280;62579;47.288;18.646;2023-04-15T06:48:34;98886.59;;;8.03;100.00
74218;BME280;62579;47.288;18.646;2023-04-15T06:50:59;98885.84;;;8.03;100.00
74218;BME280;62579;47.288;18.646;2023-04-15T06:53:25;98891.94;;;8.14;100.00
74218;BME280;62579;47.288;18.646;2023-04-15T06:55:51;98898.53;;;8.24;99.45
74218;BME280;62579;47.288;18.646;2023-04-15T06:58:17;98884.41;;;8.37;98.53
74218;BME280;62579;47.288;18.646;2023-04-15T07:00:42;98893.03;;;8.41;97.73
74218;BME280;62579;47.288;18.646;2023-04-15T07:03:07;98902.25;;;8.57;96.31
74218;BME280;62579;47.288;18.646;2023-04-15T07:05:35;98897.75;;;8.65;94.76
74218;BME280;62579;47.288;18.646;2023-04-15T07:08:00;98904.66;;;8.66;94.96
74218;BME280;62579;47.288;18.646;2023-04-15T07:10:25;98907.78;;;8.75;94.74
74218;BME280;62579;47.288;18.646;2023-04-15T07:12:51;98906.56;;;8.76;94.61
74218;BME280;62579;47.288;18.646;2023-04-15T07:15:16;98904.84;;;8.73;94.42
74218;BME280;62579;47.288;18.646;2023-04-15T07:17:41;98904.75;;;8.84;93.08
74218;BME280;62579;47.288;18.646;2023-04-15T07:20:10;98910.13;;;8.90;93.21
74218;BME280;62579;47.288;18.646;2023-04-15T07:22:36;98907.44;;;8.90;92.31
74218;BME280;62579;47.288;18.646;2023-04-15T07:25:02;98909.56;;;8.97;91.56
74218;BME280;62579;47.288;18.646;2023-04-15T07:27:27;98912.16;;;8.84;92.27
74218;BME280;62579;47.288;18.646;2023-04-15T07:29:52;98912.59;;;8.88;91.68
74218;BME280;62579;47.288;18.646;2023-04-15T07:32:17;98912.81;;;8.95;91.49
74218;BME280;62579;47.288;18.646;2023-04-15T07:34:43;98916.69;;;9.00;91.77
74218;BME280;62579;47.288;18.646;2023-04-15T07:37:08;98915.91;;;9.05;91.71
74218;BME280;62579;47.288;18.646;2023-04-15T07:39:33;98911.84;;;9.17;91.39
74218;BME280;62579;47.288;18.646;2023-04-15T07:41:59;98923.25;;;9.10;92.28
74218;BME280;62579;47.288;18.646;2023-04-15T07:44:25;98918.06;;;9.12;92.51
74218;BME280;62579;47.288;18.646;2023-04-15T07:46:50;98930.41;;;9.13;91.01
74218;BME280;62579;47.288;18.646;2023-04-15T07:49:15;98929.03;;;9.25;91.37
74218;BME280;62579;47.288;18.646;2023-04-15T07:51:43;98933.28;;;9.21;91.17
74218;BME280;62579;47.288;18.646;2023-04-15T07:54:08;98933.72;;;9.00;91.65
74218;BME280;62579;47.288;18.646;2023-04-15T07:56:34;98932.16;;;9.11;91.08
74218;BME280;62579;47.288;18.646;2023-04-15T07:58:59;98933.44;;;9.28;90.12
74218;BME280;62579;47.288;18.646;2023-04-15T08:01:26;98932.31;;;9.42;90.45
74218;BME280;62579;47.288;18.646;2023-04-15T08:03:51;98929.09;;;9.44;89.18
74218;BME280;62579;47.288;18.646;2023-04-15T08:06:17;98934.13;;;9.34;89.98
74218;BME280;62579;47.288;18.646;2023-04-15T08:08:42;98936.72;;;9.45;89.13
74218;BME280;62579;47.288;18.646;2023-04-15T08:11:07;98945.56;;;9.51;89.24
74218;BME280;62579;47.288;18.646;2023-04-15T08:13:33;98937.16;;;9.49;88.76
74218;BME280;62579;47.288;18.646;2023-04-15T08:16:12;98943.69;;;9.41;90.43
74218;BME280;62579;47.288;18.646;2023-04-15T08:18:38;98941.59;;;9.52;89.80
74218;BME280;62579;47.288;18.646;2023-04-15T08:21:03;98944.13;;;9.69;89.71
74218;BME280;62579;47.288;18.646;2023-04-15T08:23:28;98943.50;;;9.57;89.46
74218;BME280;62579;47.288;18.646;2023-04-15T08:25:54;98943.84;;;9.73;89.63
74218;BME280;62579;47.288;18.646;2023-04-15T08:28:19;98941.22;;;9.86;89.14
74218;BME280;62579;47.288;18.646;2023-04-15T08:30:44;98940.56;;;9.98;88.93
74218;BME280;62579;47.288;18.646;2023-04-15T08:33:09;98939.47;;;10.07;89.57
74218;BME280;62579;47.288;18.646;2023-04-15T08:35:35;98951.81;;;9.89;88.44
74218;BME280;62579;47.288;18.646;2023-04-15T08:38:00;98949.75;;;10.14;87.61
74218;BME280;62579;47.288;18.646;2023-04-15T08:40:25;98945.88;;;10.28;87.43
74218;BME280;62579;47.288;18.646;2023-04-15T08:42:57;98946.31;;;10.32;88.45
74218;BME280;62579;47.288;18.646;2023-04-15T08:45:23;98953.81;;;10.26;88.93
74218;BME280;62579;47.288;18.646;2023-04-15T08:47:49;98945.44;;;10.43;87.18
74218;BME280;62579;47.288;18.646;2023-04-15T08:50:17;98946.44;;;10.58;85.63
74218;BME280;62579;47.288;18.646;2023-04-15T08:52:42;98943.94;;;10.60;85.82
74218;BME280;62579;47.288;18.646;2023-04-15T08:55:08;98954.44;;;10.69;85.96
74218;BME280;62579;47.288;18.646;2023-04-15T08:57:33;98953.62;;;10.74;85.40
74218;BME280;62579;47.288;18.646;2023-04-15T09:00:00;98949.69;;;10.57;85.80
74218;BME280;62579;47.288;18.646;2023-04-15T09:02:26;98949.06;;;10.64;89.28
74218;BME280;62579;47.288;18.646;2023-04-15T09:04:51;98955.22;;;10.83;88.29
74218;BME280;62579;47.288;18.646;2023-04-15T09:07:17;98954.13;;;11.18;86.16
74218;BME280;62579;47.288;18.646;2023-04-15T09:09:42;98956.53;;;11.08;88.00
74218;BME280;62579;47.288;18.646;2023-04-15T09:12:07;98957.16;;;11.14;85.52
74218;BME280;62579;47.288;18.646;2023-04-15T09:14:33;98958.97;;;11.25;85.68
74218;BME280;62579;47.288;18.646;2023-04-15T09:16:59;98966.81;;;11.15;86.05
74218;BME280;62579;47.288;18.646;2023-04-15T09:19:25;98980.03;;;10.93;84.74
74218;BME280;62579;47.288;18.646;2023-04-15T09:21:52;98977.44;;;11.00;85.33
74218;BME280;62579;47.288;18.646;2023-04-15T09:24:17;98975.25;;;10.99;84.42
74218;BME280;62579;47.288;18.646;2023-04-15T09:26:42;98981.81;;;10.90;86.14
74218;BME280;62579;47.288;18.646;2023-04-15T09:29:08;98979.37;;;10.86;86.63
74218;BME280;62579;47.288;18.646;2023-04-15T09:31:34;98976.34;;;10.77;88.52
74218;BME280;62579;47.288;18.646;2023-04-15T09:34:01;98979.63;;;10.89;88.34
74218;BME280;62579;47.288;18.646;2023-04-15T09:36:26;98974.84;;;10.76;87.57
74218;BME280;62579;47.288;18.646;2023-04-15T09:41:21;98985.09;;;11.02;86.53
74218;BME280;62579;47.288;18.646;2023-04-15T09:43:47;98979.53;;;10.94;87.24
74218;BME280;62579;47.288;18.646;2023-04-15T09:46:12;98982.69;;;10.98;85.02
74218;BME280;62579;47.288;18.646;2023-04-15T09:48:37;98978.25;;;10.63;88.52
74218;BME280;62579;47.288;18.646;2023-04-15T09:51:02;98984.38;;;10.51;87.75
74218;BME280;62579;47.288;18.646;2023-04-15T09:53:28;98983.53;;;10.74;88.02
74218;BME280;62579;47.288;18.646;2023-04-15T09:55:54;98979.25;;;10.79;88.70
74218;BME280;62579;47.288;18.646;2023-04-15T09:58:29;98978.53;;;10.78;88.92
74218;BME280;62579;47.288;18.646;2023-04-15T10:00:55;98972.31;;;10.65;88.22
74218;BME280;62579;47.288;18.646;2023-04-15T10:03:28;98983.03;;;10.57;88.00
74218;BME280;62579;47.288;18.646;2023-04-15T10:05:54;98986.87;;;10.67;89.50
74218;BME280;62579;47.288;18.646;2023-04-15T10:08:21;98987.06;;;10.88;87.20
74218;BME280;62579;47.288;18.646;2023-04-15T10:10:48;98988.37;;;10.81;86.48
74218;BME280;62579;47.288;18.646;2023-04-15T10:13:14;98987.37;;;10.66;86.98
74218;BME280;62579;47.288;18.646;2023-04-15T10:15:42;98994.75;;;10.52;88.84
74218;BME280;62579;47.288;18.646;2023-04-15T10:18:07;98992.94;;;10.73;88.08
74218;BME280;62579;47.288;18.646;2023-04-15T10:20:34;98995.72;;;10.86;85.39
74218;BME280;62579;47.288;18.646;2023-04-15T10:22:59;98997.09;;;10.61;86.51
74218;BME280;62579;47.288;18.646;2023-04-15T10:25:25;99000.25;;;10.65;87.05
74218;BME280;62579;47.288;18.646;2023-04-15T10:27:50;99000.25;;;10.65;87.30
74218;BME280;62579;47.288;18.646;2023-04-15T10:30:16;99003.72;;;10.66;87.27
74218;BME280;62579;47.288;18.646;2023-04-15T10:32:42;99004.97;;;10.65;87.62
74218;BME280;62579;47.288;18.646;2023-04-15T10:35:08;99001.81;;;10.61;87.22
74218;BME280;62579;47.288;18.646;2023-04-15T10:37:35;99000.03;;;10.63;88.20
74218;BME280;62579;47.288;18.646;2023-04-15T10:40:10;99003.91;;;10.68;87.87
74218;BME280;62579;47.288;18.646;2023-04-15T10:42:46;98999.44;;;10.70;88.14
74218;BME280;62579;47.288;18.646;2023-04-15T10:45:15;99001.87;;;10.55;89.35
74218;BME280;62579;47.288;18.646;2023-04-15T10:47:42;98997.91;;;10.56;88.27
74218;BME280;62579;47.288;18.646;2023-04-15T10:50:07;98992.03;;;10.52;89.92
74218;BME280;62579;47.288;18.646;2023-04-15T10:52:33;98999.31;;;10.44;89.94
74218;BME280;62579;47.288;18.646;2023-04-15T10:55:02;98987.66;;;10.81;90.01
74218;BME280;62579;47.288;18.646;2023-04-15T10:57:33;98991.06;;;11.00;92.03
74218;BME280;62579;47.288;18.646;2023-04-15T11:00:09;98992.00;;;11.03;92.83
74218;BME280;62579;47.288;18.646;2023-04-15T11:05:06;98989.16;;;11.40;88.36
74218;BME280;62579;47.288;18.646;2023-04-15T11:07:38;98989.16;;;11.40;89.20
74218;BME280;62579;47.288;18.646;2023-04-15T11:10:50;98994.28;;;11.30;89.78
74218;BME280;62579;47.288;18.646;2023-04-15T11:12:51;99004.72;;;11.13;88.10
74218;BME280;62579;47.288;18.646;2023-04-15T11:15:26;98993.47;;;11.04;88.09
74218;BME280;62579;47.288;18.646;2023-04-15T11:17:54;99003.66;;;11.16;88.60
74218;BME280;62579;47.288;18.646;2023-04-15T11:20:19;98998.38;;;11.24;86.42
74218;BME280;62579;47.288;18.646;2023-04-15T11:22:52;98993.78;;;11.00;87.21
74218;BME280;62579;47.288;18.646;2023-04-15T11:25:24;98997.44;;;11.03;86.65
74218;BME280;62579;47.288;18.646;2023-04-15T11:27:50;99001.22;;;11.00;86.96
74218;BME280;62579;47.288;18.646;2023-04-15T11:30:19;99000.28;;;10.97;87.62
74218;BME280;62579;47.288;18.646;2023-04-15T11:32:46;99003.59;;;10.90;87.68
74218;BME280;62579;47.288;18.646;2023-04-15T11:35:11;99010.66;;;10.48;90.18
74218;BME280;62579;47.288;18.646;2023-04-15T11:37:36;99003.50;;;10.64;89.09
74218;BME280;62579;47.288;18.646;2023-04-15T11:40:01;99010.03;;;10.55;90.32
74218;BME280;62579;47.288;18.646;2023-04-15T11:42:27;98998.34;;;10.60;89.76
74218;BME280;62579;47.288;18.646;2023-04-15T11:45:05;99010.91;;;10.63;89.19
74218;BME280;62579;47.288;18.646;2023-04-15T11:47:30;99004.81;;;10.57;89.91
74218;BME280;62579;47.288;18.646;2023-04-15T11:49:55;99002.69;;;10.69;89.82
74218;BME280;62579;47.288;18.646;2023-04-15T11:52:21;98997.50;;;10.84;90.12
74218;BME280;62579;47.288;18.646;2023-04-15T11:54:46;99001.78;;;10.79;91.74
74218;BME280;62579;47.288;18.646;2023-04-15T11:57:12;98994.06;;;10.83;91.66
74218;BME280;62579;47.288;18.646;2023-04-15T11:59:40;98995.25;;;11.01;90.44
74218;BME280;62579;47.288;18.646;2023-04-15T12:02:12;98998.56;;;10.81;93.61
74218;BME280;62579;47.288;18.646;2023-04-15T12:04:38;99003.22;;;10.67;91.79
74218;BME280;62579;47.288;18.646;2023-04-15T12:07:03;99007.53;;;10.57;91.17
74218;BME280;62579;47.288;18.646;2023-04-15T12:09:29;99003.28;;;10.43;90.94
74218;BME280;62579;47.288;18.646;2023-04-15T12:11:56;99003.50;;;10.45;90.24
74218;BME280;62579;47.288;18.646;2023-04-15T12:14:28;99003.50;;;10.45;91.43
74218;BME280;62579;47.288;18.646;2023-04-15T12:16:54;99018.00;;;10.35;91.20
74218;BME280;62579;47.288;18.646;2023-04-15T12:19:28;99019.44;;;10.36;91.44
74218;BME280;62579;47.288;18.646;2023-04-15T12:21:58;99007.84;;;10.54;91.74
74218;BME280;62579;47.288;18.646;2023-04-15T12:24:24;99013.62;;;10.63;91.53
74218;BME280;62579;47.288;18.646;2023-04-15T12:26:53;99014.50;;;10.71;91.73
74218;BME280;62579;47.288;18.646;2023-04-15T12:29:23;99008.28;;;10.90;91.84
74218;BME280;62579;47.288;18.646;2023-04-15T12:31:54;99017.94;;;11.22;92.34
74218;BME280;62579;47.288;18.646;2023-04-15T12:34:29;99016.63;;;11.42;94.49
74218;BME280;62579;47.288;18.646;2023-04-15T12:36:55;99017.69;;;11.52;92.20
74218;BME280;62579;47.288;18.646;2023-04-15T12:39:22;99007.03;;;11.80;88.85
74218;BME280;62579;47.288;18.646;2023-04-15T12:41:48;99001.91;;;11.77;87.25
74218;BME280;62579;47.288;18.646;2023-04-15T12:44:13;99010.28;;;11.79;86.73
74218;BME280;62579;47.288;18.646;2023-04-15T12:46:38;99015.44;;;11.69;85.15
74218;BME280;62579;47.288;18.646;2023-04-15T12:49:03;99008.88;;;11.59;85.35
74218;BME280;62579;47.288;18.646;2023-04-15T12:51:29;99018.97;;;11.64;83.82
74218;BME280;62579;47.288;18.646;2023-04-15T12:53:55;99020.47;;;11.33;85.23